createdAt,value
2023-03-28T00:04:13.496Z,38
2023-03-28T00:09:14.850Z,37.9
2023-03-28T00:14:15.219Z,37.9
2023-03-28T00:19:15.561Z,37.8
2023-03-28T00:24:15.880Z,37.7
2023-03-28T00:29:16.283Z,37.7
2023-03-28T00:34:16.679Z,37.7
2023-03-28T00:39:17.911Z,37.6
2023-03-28T00:44:18.285Z,37.6
2023-03-28T00:49:18.652Z,37.5
2023-03-28T00:54:19.005Z,37.4
2023-03-28T00:59:19.350Z,37.4
2023-03-28T01:04:19.727Z,37.4
2023-03-28T01:09:20.115Z,37.3
2023-03-28T01:14:20.503Z,37.2
2023-03-28T01:19:20.873Z,37.2
2023-03-28T01:24:21.241Z,37.1
2023-03-28T01:29:21.706Z,37.1
2023-03-28T01:34:22.054Z,37.1
2023-03-28T01:39:22.526Z,37
2023-03-28T01:44:22.911Z,37
2023-03-28T01:49:23.312Z,36.9
2023-03-28T01:54:23.675Z,36.9
2023-03-28T01:59:24.020Z,36.8
2023-03-28T02:04:24.452Z,36.7
2023-03-28T02:09:24.990Z,36.7
2023-03-28T02:14:25.452Z,36.7
2023-03-28T02:19:25.818Z,36.6
2023-03-28T02:24:26.231Z,36.6
2023-03-28T02:29:26.791Z,36.6
2023-03-28T02:34:27.150Z,36.5
2023-03-28T02:39:27.519Z,36.5
2023-03-28T02:44:28.804Z,36.4
2023-03-28T02:49:33.142Z,36.4
2023-03-28T02:54:37.928Z,36.4
2023-03-28T03:04:44.476Z,36.2
2023-03-28T03:09:45.872Z,36.2
2023-03-28T03:14:46.496Z,36.2
2023-03-28T03:19:47.056Z,36.1
2023-03-28T03:24:47.433Z,36.1
2023-03-28T03:29:47.805Z,36.1
2023-03-28T03:34:49.009Z,36
2023-03-28T03:39:49.388Z,36
2023-03-28T03:44:49.753Z,35.9
2023-03-28T03:49:50.111Z,35.9
2023-03-28T03:54:50.486Z,35.9
2023-03-28T03:59:50.846Z,35.8
2023-03-28T04:04:51.177Z,35.8
2023-03-28T04:09:51.522Z,35.7
2023-03-28T04:14:51.905Z,35.7
2023-03-28T04:19:52.255Z,35.7
2023-03-28T04:24:52.587Z,35.6
2023-03-28T04:29:52.988Z,35.6
2023-03-28T04:34:54.191Z,35.6
2023-03-28T04:39:54.539Z,35.6
2023-03-28T04:44:54.887Z,35.5
2023-03-28T04:49:55.245Z,35.5
2023-03-28T04:54:55.670Z,35.4
2023-03-28T04:59:56.170Z,35.4
2023-03-28T05:04:56.502Z,34.9
2023-03-28T05:09:56.817Z,34.5
2023-03-28T05:14:57.121Z,34.4
2023-03-28T05:19:57.417Z,34.4
2023-03-28T05:24:57.708Z,34.4
2023-03-28T05:29:58.015Z,34.3
2023-03-28T05:34:58.307Z,34.3
2023-03-28T05:39:58.588Z,34.2
2023-03-28T05:44:58.892Z,34.2
2023-03-28T05:49:59.150Z,34.2
2023-03-28T05:54:59.599Z,34.2
2023-03-28T06:00:00.167Z,34.1
2023-03-28T06:05:00.510Z,34.1
2023-03-28T06:10:00.897Z,34.1
2023-03-28T06:15:01.215Z,34.1
2023-03-28T06:20:01.539Z,34
2023-03-28T06:25:01.921Z,34
2023-03-28T06:30:02.219Z,34
2023-03-28T06:35:02.527Z,33.8
2023-03-28T06:40:02.785Z,33.7
2023-03-28T06:45:03.022Z,33.7
2023-03-28T06:50:03.290Z,33.7
2023-03-28T06:55:03.740Z,33.7
2023-03-28T07:00:03.988Z,33.6
2023-03-28T07:05:04.276Z,33.6
2023-03-28T07:10:05.448Z,33.6
2023-03-28T07:15:05.774Z,33.6
2023-03-28T07:20:06.187Z,33.5
2023-03-28T07:25:06.475Z,33.5
2023-03-28T07:30:06.822Z,33.5
2023-03-28T07:35:07.338Z,33.4
2023-03-28T07:40:07.614Z,33.4
2023-03-28T07:45:07.864Z,33.4
2023-03-28T07:50:08.152Z,33.4
2023-03-28T07:55:08.423Z,33.4
2023-03-28T08:00:08.704Z,33.3
2023-03-28T08:05:09.003Z,33.3
2023-03-28T08:10:10.191Z,33.2
2023-03-28T08:15:10.506Z,33.1
2023-03-28T08:20:10.752Z,33.1
2023-03-28T08:25:10.996Z,33.1
2023-03-28T08:30:11.206Z,33.1
2023-03-28T08:35:11.440Z,33.1
2023-03-28T08:40:11.676Z,33
2023-03-28T08:45:11.899Z,33
2023-03-28T08:50:13.355Z,33
2023-03-28T08:55:13.823Z,32.9
2023-03-28T09:00:14.067Z,32.9
2023-03-28T09:05:22.951Z,32.9
2023-03-28T09:10:24.056Z,32.9
2023-03-28T09:15:24.344Z,32.9
2023-03-28T09:20:24.581Z,32.8
2023-03-28T09:25:24.806Z,32.8
2023-03-28T09:30:25.193Z,32.8
2023-03-28T09:35:25.421Z,32.7
2023-03-28T09:40:26.571Z,32.7
2023-03-28T09:45:26.944Z,32.7
2023-03-28T09:50:27.357Z,32.7
2023-03-28T09:55:27.685Z,32.7
2023-03-28T10:00:27.934Z,32.7
2023-03-28T10:05:28.191Z,32.6
2023-03-28T10:10:28.461Z,32.6
2023-03-28T10:15:28.717Z,32.6
2023-03-28T10:20:28.996Z,32.6
2023-03-28T10:25:29.237Z,32.6
2023-03-28T10:30:29.554Z,32.6
2023-03-28T10:35:29.837Z,32.5
2023-03-28T10:40:30.564Z,32.5
2023-03-28T10:45:30.963Z,32.4
2023-03-28T10:50:31.230Z,32.4
2023-03-28T10:55:31.487Z,32.4
2023-03-28T11:00:31.792Z,32.4
2023-03-28T11:05:32.011Z,32.4
2023-03-28T11:10:32.301Z,32.4
2023-03-28T11:15:32.560Z,32.4
2023-03-28T11:20:32.820Z,32.3
2023-03-28T11:25:33.048Z,32.3
2023-03-28T11:30:33.315Z,32.3
2023-03-28T11:35:33.560Z,32.2
2023-03-28T11:40:33.822Z,32.2
2023-03-28T11:45:47.159Z,32.2
2023-03-28T11:50:50.823Z,32.2
2023-03-28T11:55:51.065Z,32.2
2023-03-28T12:00:51.321Z,32.1
2023-03-28T12:05:52.452Z,32.1
2023-03-28T12:10:54.802Z,32.1
2023-03-28T12:15:55.053Z,32.1
2023-03-28T12:20:55.261Z,32.1
2023-03-28T12:25:55.596Z,32.1
2023-03-28T12:30:56.414Z,32.1
2023-03-28T12:35:56.721Z,32
2023-03-28T12:40:57.145Z,32
2023-03-28T12:45:57.544Z,32
2023-03-28T12:50:57.908Z,31.9
2023-03-28T12:55:58.377Z,31.9
2023-03-28T13:01:00.465Z,31.9
2023-03-28T13:06:02.521Z,31.9
2023-03-28T13:11:02.901Z,31.9
2023-03-28T13:16:05.048Z,31.9
2023-03-28T13:21:05.375Z,31.9
2023-03-28T13:26:05.638Z,31.8
2023-03-28T13:31:06.746Z,31.8
2023-03-28T13:36:07.283Z,31.8
2023-03-28T13:41:08.634Z,31.8
2023-03-28T13:46:10.522Z,31.8
2023-03-28T13:51:10.718Z,31.8
2023-03-28T13:56:10.923Z,31.8
2023-03-28T14:01:11.167Z,31.7
2023-03-28T14:06:13.445Z,31.7
2023-03-28T14:11:13.621Z,31.7
2023-03-28T14:16:14.388Z,31.7
2023-03-28T14:21:14.606Z,31.6
2023-03-28T14:26:14.804Z,31.6
2023-03-28T14:31:15.103Z,31.6
2023-03-28T14:36:15.453Z,31.6
2023-03-28T14:41:15.671Z,31.6
2023-03-28T14:46:17.532Z,31.6
2023-03-28T14:51:19.388Z,31.6
2023-03-28T14:56:19.648Z,31.5
2023-03-28T15:01:21.677Z,31.5
2023-03-28T15:06:22.295Z,31.5
2023-03-28T15:11:27.051Z,31.5
2023-03-28T15:16:27.270Z,31.4
2023-03-28T15:21:27.535Z,31.4
2023-03-28T15:26:29.473Z,31.4
2023-03-28T15:31:29.690Z,31.4
2023-03-28T15:36:29.972Z,31.4
2023-03-28T15:41:31.839Z,31.4
2023-03-28T15:46:33.750Z,31.4
2023-03-28T15:51:35.698Z,31.4
2023-03-28T15:56:36.459Z,31.3
2023-03-28T16:01:36.792Z,31.3
2023-03-28T16:06:38.154Z,31.3
2023-03-28T16:11:38.681Z,31.3
2023-03-28T16:16:42.306Z,31.2
2023-03-28T16:21:48.358Z,31.2
2023-03-28T16:26:50.567Z,31.2
2023-03-28T16:31:50.734Z,31.2
2023-03-28T16:36:51.239Z,32.2
2023-03-28T16:41:51.528Z,35.1
2023-03-28T16:46:52.226Z,37.3
2023-03-28T16:56:59.066Z,41.3
2023-03-28T17:01:59.693Z,42.3
2023-03-28T17:07:00.436Z,43.6
2023-03-28T17:12:01.278Z,43.7
2023-03-28T17:17:01.960Z,43.7
2023-03-28T17:22:02.575Z,43.7
2023-03-28T17:27:03.138Z,43.7
2023-03-28T17:32:03.769Z,43.4
2023-03-28T17:37:04.577Z,43.3
2023-03-28T17:42:05.186Z,43.2
2023-03-28T17:47:05.769Z,43.1
2023-03-28T17:52:06.374Z,43.1
2023-03-28T17:57:07.459Z,43.1
2023-03-28T18:02:07.984Z,43.1
2023-03-28T18:07:15.553Z,43
2023-03-28T18:12:17.308Z,43
2023-03-28T18:17:17.822Z,42.9
2023-03-28T18:22:18.418Z,42.9
2023-03-28T18:27:18.961Z,42.9
2023-03-28T18:32:20.472Z,42.9
2023-03-28T18:37:21.100Z,42.8
2023-03-28T18:42:21.663Z,42.8
2023-03-28T18:47:22.227Z,42.7
2023-03-28T18:52:22.882Z,42.7
2023-03-28T18:57:23.458Z,42.7
2023-03-28T19:02:24.077Z,42.7
2023-03-28T19:07:24.795Z,42.6
2023-03-28T19:12:25.276Z,42.6
2023-03-28T19:17:26.137Z,42.6
2023-03-28T19:22:27.569Z,42.5
2023-03-28T19:27:28.281Z,42.5
2023-03-28T19:32:29.776Z,42.4
2023-03-28T19:37:30.429Z,42.4
2023-03-28T19:42:30.978Z,42.4
2023-03-28T19:47:31.589Z,42.3
2023-03-28T19:52:32.440Z,42.2
2023-03-28T19:57:32.983Z,42.2
2023-03-28T20:02:33.546Z,42.2
2023-03-28T20:07:34.173Z,42.1
2023-03-28T20:12:34.706Z,42.1
2023-03-28T20:17:35.285Z,42
2023-03-28T20:22:35.908Z,42
2023-03-28T20:27:36.455Z,41.9
2023-03-28T20:32:36.958Z,41.8
2023-03-28T20:37:38.339Z,41.5
2023-03-28T20:42:38.781Z,41.4
2023-03-28T20:47:39.322Z,41.4
2023-03-28T20:52:40.922Z,41.3
2023-03-28T20:57:41.572Z,41.2
2023-03-28T21:02:42.902Z,41.2
2023-03-28T21:07:43.411Z,41.1
2023-03-28T21:12:43.862Z,41.1
2023-03-28T21:17:45.175Z,41.1
2023-03-28T21:22:45.715Z,41
2023-03-28T21:27:46.355Z,40.9
2023-03-28T21:32:47.055Z,40.9
2023-03-28T21:37:47.689Z,40.8
2023-03-28T21:42:48.391Z,40.8
2023-03-28T21:47:49.073Z,40.8
2023-03-28T21:52:49.614Z,40.7
2023-03-28T21:57:50.076Z,40.6
2023-03-28T22:02:51.536Z,40.6
2023-03-28T22:07:52.053Z,40.5
2023-03-28T22:12:52.714Z,40.5
2023-03-28T22:17:53.219Z,40.4
2023-03-28T22:22:54.162Z,40.4
2023-03-28T22:27:54.679Z,40.3
2023-03-28T22:32:55.158Z,40.2
2023-03-28T22:37:55.643Z,40.2
2023-03-28T22:42:56.194Z,40.1
2023-03-28T22:47:56.677Z,40.1
2023-03-28T22:52:57.118Z,40.1
2023-03-28T22:57:57.574Z,40
2023-03-28T23:02:58.110Z,39.9
2023-03-28T23:07:58.799Z,39.9
2023-03-28T23:18:04.722Z,39.8
2023-03-28T23:23:05.405Z,39.7
2023-03-28T23:28:05.871Z,39.7
2023-03-28T23:33:06.390Z,39.7
2023-03-28T23:38:07.090Z,39.6
2023-03-28T23:43:07.556Z,39.6
2023-03-28T23:48:08.866Z,39.5
2023-03-28T23:53:09.381Z,39.4
2023-03-28T23:58:09.845Z,39.4
